sensor_id;sensor_type;location;lat;lon;timestamp;P1;durP1;ratioP1;P2;durP2;ratioP2
27802;SDS011;15182;48.174;11.562;2023-09-12T00:02:09;10.02;;;9.27;;
27802;SDS011;15182;48.174;11.562;2023-09-12T00:04:36;9.80;;;8.90;;
27802;SDS011;15182;48.174;11.562;2023-09-12T00:07:06;10.40;;;9.50;;
27802;SDS011;15182;48.174;11.562;2023-09-12T00:09:33;9.48;;;8.77;;
27802;SDS011;15182;48.174;11.562;2023-09-12T00:12:01;9.75;;;9.05;;
27802;SDS011;15182;48.174;11.562;2023-09-12T00:14:30;9.40;;;8.70;;
27802;SDS011;15182;48.174;11.562;2023-09-12T00:16:57;9.52;;;8.82;;
27802;SDS011;15182;48.174;11.562;2023-09-12T00:19:25;10.13;;;9.23;;
27802;SDS011;15182;48.174;11.562;2023-09-12T00:21:53;8.85;;;8.25;;
27802;SDS011;15182;48.174;11.562;2023-09-12T00:24:22;9.60;;;8.73;;
27802;SDS011;15182;48.174;11.562;2023-09-12T00:26:50;13.60;;;9.27;;
27802;SDS011;15182;48.174;11.562;2023-09-12T00:29:18;10.23;;;8.65;;
27802;SDS011;15182;48.174;11.562;2023-09-12T00:31:46;10.25;;;9.27;;
27802;SDS011;15182;48.174;11.562;2023-09-12T00:34:15;9.93;;;9.13;;
27802;SDS011;15182;48.174;11.562;2023-09-12T00:36:43;11.68;;;9.38;;
27802;SDS011;15182;48.174;11.562;2023-09-12T00:39:11;10.15;;;9.35;;
27802;SDS011;15182;48.174;11.562;2023-09-12T00:41:40;9.75;;;8.95;;
27802;SDS011;15182;48.174;11.562;2023-09-12T00:44:09;9.55;;;8.85;;
27802;SDS011;15182;48.174;11.562;2023-09-12T00:46:37;9.63;;;8.93;;
27802;SDS011;15182;48.174;11.562;2023-09-12T00:49:06;9.43;;;8.73;;
27802;SDS011;15182;48.174;11.562;2023-09-12T00:51:36;9.48;;;8.68;;
27802;SDS011;15182;48.174;11.562;2023-09-12T00:54:04;9.57;;;8.88;;
27802;SDS011;15182;48.174;11.562;2023-09-12T00:56:33;10.60;;;9.70;;
27802;SDS011;15182;48.174;11.562;2023-09-12T00:59:02;9.90;;;9.10;;
27802;SDS011;15182;48.174;11.562;2023-09-12T01:01:32;9.27;;;8.43;;
27802;SDS011;15182;48.174;11.562;2023-09-12T01:04:01;8.57;;;7.97;;
27802;SDS011;15182;48.174;11.562;2023-09-12T01:06:29;9.57;;;8.77;;
27802;SDS011;15182;48.174;11.562;2023-09-12T01:09:00;9.65;;;8.77;;
27802;SDS011;15182;48.174;11.562;2023-09-12T01:11:28;8.95;;;8.13;;
27802;SDS011;15182;48.174;11.562;2023-09-12T01:13:57;9.30;;;8.50;;
27802;SDS011;15182;48.174;11.562;2023-09-12T01:16:26;9.05;;;8.10;;
27802;SDS011;15182;48.174;11.562;2023-09-12T01:18:54;8.73;;;8.13;;
27802;SDS011;15182;48.174;11.562;2023-09-12T01:21:38;9.40;;;8.50;;
27802;SDS011;15182;48.174;11.562;2023-09-12T01:24:52;8.45;;;7.95;;
27802;SDS011;15182;48.174;11.562;2023-09-12T01:27:37;9.30;;;7.97;;
27802;SDS011;15182;48.174;11.562;2023-09-12T01:30:09;9.40;;;8.50;;
27802;SDS011;15182;48.174;11.562;2023-09-12T01:32:37;8.52;;;7.82;;
27802;SDS011;15182;48.174;11.562;2023-09-12T01:35:07;9.05;;;8.20;;
27802;SDS011;15182;48.174;11.562;2023-09-12T01:37:35;9.80;;;8.95;;
27802;SDS011;15182;48.174;11.562;2023-09-12T01:40:03;9.13;;;8.45;;
27802;SDS011;15182;48.174;11.562;2023-09-12T01:42:35;9.07;;;8.38;;
27802;SDS011;15182;48.174;11.562;2023-09-12T01:45:10;9.15;;;8.45;;
27802;SDS011;15182;48.174;11.562;2023-09-12T01:47:40;9.65;;;8.65;;
27802;SDS011;15182;48.174;11.562;2023-09-12T01:50:09;9.75;;;8.52;;
27802;SDS011;15182;48.174;11.562;2023-09-12T01:52:39;9.23;;;8.48;;
27802;SDS011;15182;48.174;11.562;2023-09-12T01:55:07;10.13;;;9.05;;
27802;SDS011;15182;48.174;11.562;2023-09-12T01:57:37;8.70;;;8.00;;
27802;SDS011;15182;48.174;11.562;2023-09-12T02:00:06;9.55;;;8.75;;
27802;SDS011;15182;48.174;11.562;2023-09-12T02:02:35;9.80;;;8.98;;
27802;SDS011;15182;48.174;11.562;2023-09-12T02:05:05;9.27;;;8.55;;
27802;SDS011;15182;48.174;11.562;2023-09-12T02:07:38;11.30;;;9.38;;
27802;SDS011;15182;48.174;11.562;2023-09-12T02:10:08;8.85;;;8.25;;
27802;SDS011;15182;48.174;11.562;2023-09-12T02:12:37;10.00;;;9.07;;
27802;SDS011;15182;48.174;11.562;2023-09-12T02:15:06;8.57;;;7.97;;
27802;SDS011;15182;48.174;11.562;2023-09-12T02:17:35;9.55;;;8.68;;
27802;SDS011;15182;48.174;11.562;2023-09-12T02:20:05;9.23;;;8.43;;
27802;SDS011;15182;48.174;11.562;2023-09-12T02:22:34;9.70;;;8.80;;
27802;SDS011;15182;48.174;11.562;2023-09-12T02:25:02;9.07;;;8.43;;
27802;SDS011;15182;48.174;11.562;2023-09-12T02:27:34;8.68;;;8.05;;
27802;SDS011;15182;48.174;11.562;2023-09-12T02:30:03;9.57;;;8.88;;
27802;SDS011;15182;48.174;11.562;2023-09-12T02:32:33;9.52;;;8.73;;
27802;SDS011;15182;48.174;11.562;2023-09-12T02:35:00;9.25;;;8.55;;
27802;SDS011;15182;48.174;11.562;2023-09-12T02:37:28;9.30;;;8.40;;
27802;SDS011;15182;48.174;11.562;2023-09-12T02:39:56;9.25;;;8.45;;
27802;SDS011;15182;48.174;11.562;2023-09-12T02:42:24;9.68;;;8.82;;
27802;SDS011;15182;48.174;11.562;2023-09-12T02:44:52;9.50;;;8.70;;
27802;SDS011;15182;48.174;11.562;2023-09-12T02:47:21;9.77;;;8.52;;
27802;SDS011;15182;48.174;11.562;2023-09-12T02:49:49;9.70;;;8.80;;
27802;SDS011;15182;48.174;11.562;2023-09-12T02:52:17;9.02;;;8.27;;
27802;SDS011;15182;48.174;11.562;2023-09-12T02:54:45;10.07;;;9.07;;
27802;SDS011;15182;48.174;11.562;2023-09-12T02:57:13;9.18;;;8.48;;
27802;SDS011;15182;48.174;11.562;2023-09-12T02:59:41;10.50;;;8.85;;
27802;SDS011;15182;48.174;11.562;2023-09-12T03:02:08;8.93;;;8.20;;
27802;SDS011;15182;48.174;11.562;2023-09-12T03:04:38;8.98;;;8.13;;
27802;SDS011;15182;48.174;11.562;2023-09-12T03:07:05;10.07;;;8.73;;
27802;SDS011;15182;48.174;11.562;2023-09-12T03:09:33;9.88;;;8.73;;
27802;SDS011;15182;48.174;11.562;2023-09-12T03:12:04;8.77;;;8.02;;
27802;SDS011;15182;48.174;11.562;2023-09-12T03:14:32;8.60;;;8.00;;
27802;SDS011;15182;48.174;11.562;2023-09-12T03:17:00;12.00;;;8.32;;
27802;SDS011;15182;48.174;11.562;2023-09-12T03:19:29;8.90;;;8.10;;
27802;SDS011;15182;48.174;11.562;2023-09-12T03:21:58;8.95;;;8.18;;
27802;SDS011;15182;48.174;11.562;2023-09-12T03:24:26;8.90;;;8.20;;
27802;SDS011;15182;48.174;11.562;2023-09-12T03:26:54;8.88;;;7.97;;
27802;SDS011;15182;48.174;11.562;2023-09-12T03:29:22;9.70;;;8.77;;
27802;SDS011;15182;48.174;11.562;2023-09-12T03:31:50;8.77;;;8.07;;
27802;SDS011;15182;48.174;11.562;2023-09-12T03:34:18;8.40;;;7.82;;
27802;SDS011;15182;48.174;11.562;2023-09-12T03:36:46;10.05;;;8.10;;
27802;SDS011;15182;48.174;11.562;2023-09-12T03:39:15;8.48;;;7.45;;
27802;SDS011;15182;48.174;11.562;2023-09-12T03:41:43;7.93;;;7.43;;
27802;SDS011;15182;48.174;11.562;2023-09-12T03:44:11;8.38;;;7.68;;
27802;SDS011;15182;48.174;11.562;2023-09-12T03:46:39;9.52;;;7.45;;
27802;SDS011;15182;48.174;11.562;2023-09-12T03:49:06;7.45;;;7.05;;
27802;SDS011;15182;48.174;11.562;2023-09-12T03:51:34;8.63;;;7.90;;
27802;SDS011;15182;48.174;11.562;2023-09-12T03:54:04;8.23;;;7.65;;
27802;SDS011;15182;48.174;11.562;2023-09-12T03:56:33;8.45;;;7.88;;
27802;SDS011;15182;48.174;11.562;2023-09-12T03:59:01;8.32;;;7.60;;
27802;SDS011;15182;48.174;11.562;2023-09-12T04:01:29;8.88;;;8.07;;
27802;SDS011;15182;48.174;11.562;2023-09-12T04:03:57;8.02;;;7.50;;
27802;SDS011;15182;48.174;11.562;2023-09-12T04:06:25;9.15;;;8.38;;
27802;SDS011;15182;48.174;11.562;2023-09-12T04:08:53;8.52;;;7.82;;
27802;SDS011;15182;48.174;11.562;2023-09-12T04:11:21;9.30;;;8.45;;
27802;SDS011;15182;48.174;11.562;2023-09-12T04:13:50;8.63;;;7.80;;
27802;SDS011;15182;48.174;11.562;2023-09-12T04:16:17;8.73;;;8.00;;
27802;SDS011;15182;48.174;11.562;2023-09-12T04:18:45;9.88;;;7.88;;
27802;SDS011;15182;48.174;11.562;2023-09-12T04:21:13;8.60;;;7.95;;
27802;SDS011;15182;48.174;11.562;2023-09-12T04:23:41;8.35;;;7.78;;
27802;SDS011;15182;48.174;11.562;2023-09-12T04:26:09;8.00;;;7.50;;
27802;SDS011;15182;48.174;11.562;2023-09-12T04:28:37;8.60;;;7.75;;
27802;SDS011;15182;48.174;11.562;2023-09-12T04:31:06;8.60;;;7.97;;
27802;SDS011;15182;48.174;11.562;2023-09-12T04:33:34;8.20;;;7.60;;
27802;SDS011;15182;48.174;11.562;2023-09-12T04:36:02;8.13;;;7.60;;
27802;SDS011;15182;48.174;11.562;2023-09-12T04:38:31;7.88;;;7.38;;
27802;SDS011;15182;48.174;11.562;2023-09-12T04:41:01;7.95;;;7.35;;
27802;SDS011;15182;48.174;11.562;2023-09-12T04:43:31;8.23;;;7.53;;
27802;SDS011;15182;48.174;11.562;2023-09-12T04:45:59;7.90;;;7.30;;
27802;SDS011;15182;48.174;11.562;2023-09-12T04:48:28;8.18;;;7.50;;
27802;SDS011;15182;48.174;11.562;2023-09-12T04:50:56;8.07;;;7.35;;
27802;SDS011;15182;48.174;11.562;2023-09-12T04:53:24;8.05;;;7.45;;
27802;SDS011;15182;48.174;11.562;2023-09-12T04:55:52;8.75;;;7.88;;
27802;SDS011;15182;48.174;11.562;2023-09-12T04:58:20;8.13;;;7.53;;
27802;SDS011;15182;48.174;11.562;2023-09-12T05:00:48;8.45;;;7.82;;
27802;SDS011;15182;48.174;11.562;2023-09-12T05:03:16;8.25;;;7.55;;
27802;SDS011;15182;48.174;11.562;2023-09-12T05:05:46;7.82;;;7.32;;
27802;SDS011;15182;48.174;11.562;2023-09-12T05:08:14;8.02;;;7.43;;
27802;SDS011;15182;48.174;11.562;2023-09-12T05:10:43;7.75;;;7.25;;
27802;SDS011;15182;48.174;11.562;2023-09-12T05:13:11;10.77;;;7.57;;
27802;SDS011;15182;48.174;11.562;2023-09-12T05:15:40;8.10;;;7.40;;
27802;SDS011;15182;48.174;11.562;2023-09-12T05:18:08;8.85;;;8.13;;
27802;SDS011;15182;48.174;11.562;2023-09-12T05:20:37;8.60;;;7.85;;
27802;SDS011;15182;48.174;11.562;2023-09-12T05:23:06;8.32;;;7.63;;
27802;SDS011;15182;48.174;11.562;2023-09-12T05:25:34;7.63;;;7.13;;
27802;SDS011;15182;48.174;11.562;2023-09-12T05:28:02;8.38;;;7.55;;
27802;SDS011;15182;48.174;11.562;2023-09-12T05:30:30;8.73;;;7.82;;
27802;SDS011;15182;48.174;11.562;2023-09-12T05:32:58;11.90;;;7.93;;
27802;SDS011;15182;48.174;11.562;2023-09-12T05:35:26;8.88;;;7.93;;
27802;SDS011;15182;48.174;11.562;2023-09-12T05:37:54;8.10;;;7.30;;
27802;SDS011;15182;48.174;11.562;2023-09-12T05:40:23;8.75;;;8.00;;
27802;SDS011;15182;48.174;11.562;2023-09-12T05:42:51;8.05;;;7.28;;
27802;SDS011;15182;48.174;11.562;2023-09-12T05:45:19;8.02;;;7.43;;
27802;SDS011;15182;48.174;11.562;2023-09-12T05:47:47;7.68;;;7.13;;
27802;SDS011;15182;48.174;11.562;2023-09-12T05:50:16;7.85;;;7.25;;
27802;SDS011;15182;48.174;11.562;2023-09-12T05:52:44;8.80;;;7.88;;
27802;SDS011;15182;48.174;11.562;2023-09-12T05:55:13;9.18;;;8.52;;
27802;SDS011;15182;48.174;11.562;2023-09-12T05:58:01;8.77;;;8.10;;
27802;SDS011;15182;48.174;11.562;2023-09-12T06:00:31;10.18;;;8.48;;
27802;SDS011;15182;48.174;11.562;2023-09-12T06:03:00;37.33;;;25.15;;
27802;SDS011;15182;48.174;11.562;2023-09-12T06:05:28;29.73;;;19.13;;
27802;SDS011;15182;48.174;11.562;2023-09-12T06:07:55;26.88;;;15.95;;
27802;SDS011;15182;48.174;11.562;2023-09-12T06:10:24;15.00;;;13.48;;
27802;SDS011;15182;48.174;11.562;2023-09-12T06:12:52;13.82;;;11.82;;
27802;SDS011;15182;48.174;11.562;2023-09-12T06:15:20;16.92;;;10.48;;
27802;SDS011;15182;48.174;11.562;2023-09-12T06:17:48;10.82;;;9.93;;
27802;SDS011;15182;48.174;11.562;2023-09-12T06:20:15;9.80;;;8.95;;
27802;SDS011;15182;48.174;11.562;2023-09-12T06:22:43;11.15;;;9.02;;
27802;SDS011;15182;48.174;11.562;2023-09-12T06:25:11;9.80;;;8.85;;
27802;SDS011;15182;48.174;11.562;2023-09-12T06:27:40;10.60;;;8.07;;
27802;SDS011;15182;48.174;11.562;2023-09-12T06:30:08;8.82;;;8.07;;
27802;SDS011;15182;48.174;11.562;2023-09-12T06:32:38;9.13;;;8.32;;
27802;SDS011;15182;48.174;11.562;2023-09-12T06:35:06;13.35;;;8.27;;
27802;SDS011;15182;48.174;11.562;2023-09-12T06:37:37;10.25;;;8.88;;
27802;SDS011;15182;48.174;11.562;2023-09-12T06:40:05;8.93;;;8.05;;
27802;SDS011;15182;48.174;11.562;2023-09-12T06:42:34;9.05;;;8.07;;
27802;SDS011;15182;48.174;11.562;2023-09-12T06:45:03;10.88;;;8.88;;
27802;SDS011;15182;48.174;11.562;2023-09-12T06:47:32;8.65;;;7.80;;
27802;SDS011;15182;48.174;11.562;2023-09-12T06:50:01;8.55;;;7.65;;
27802;SDS011;15182;48.174;11.562;2023-09-12T06:52:29;9.50;;;7.82;;
27802;SDS011;15182;48.174;11.562;2023-09-12T06:54:57;15.02;;;8.23;;
27802;SDS011;15182;48.174;11.562;2023-09-12T06:57:25;8.10;;;7.53;;
27802;SDS011;15182;48.174;11.562;2023-09-12T06:59:52;9.35;;;8.45;;
27802;SDS011;15182;48.174;11.562;2023-09-12T07:02:21;9.25;;;8.40;;
27802;SDS011;15182;48.174;11.562;2023-09-12T07:04:49;9.65;;;8.65;;
27802;SDS011;15182;48.174;11.562;2023-09-12T07:07:17;9.48;;;7.68;;
27802;SDS011;15182;48.174;11.562;2023-09-12T07:09:46;9.77;;;7.95;;
27802;SDS011;15182;48.174;11.562;2023-09-12T07:12:14;11.07;;;8.65;;
27802;SDS011;15182;48.174;11.562;2023-09-12T07:14:41;9.43;;;8.57;;
27802;SDS011;15182;48.174;11.562;2023-09-12T07:17:09;9.95;;;8.05;;
27802;SDS011;15182;48.174;11.562;2023-09-12T07:19:38;9.75;;;8.90;;
27802;SDS011;15182;48.174;11.562;2023-09-12T07:22:06;8.40;;;7.60;;
27802;SDS011;15182;48.174;11.562;2023-09-12T07:24:34;7.45;;;6.85;;
27802;SDS011;15182;48.174;11.562;2023-09-12T07:27:02;11.52;;;8.10;;
27802;SDS011;15182;48.174;11.562;2023-09-12T07:29:30;9.68;;;7.82;;
27802;SDS011;15182;48.174;11.562;2023-09-12T07:31:58;8.52;;;7.68;;
27802;SDS011;15182;48.174;11.562;2023-09-12T07:34:26;8.82;;;8.13;;
27802;SDS011;15182;48.174;11.562;2023-09-12T07:36:55;8.80;;;8.13;;
27802;SDS011;15182;48.174;11.562;2023-09-12T07:39:23;10.57;;;8.13;;
27802;SDS011;15182;48.174;11.562;2023-09-12T07:41:51;11.77;;;8.32;;
27802;SDS011;15182;48.174;11.562;2023-09-12T07:44:18;9.82;;;8.45;;
27802;SDS011;15182;48.174;11.562;2023-09-12T07:46:46;14.45;;;8.27;;
27802;SDS011;15182;48.174;11.562;2023-09-12T07:49:14;9.07;;;8.32;;
27802;SDS011;15182;48.174;11.562;2023-09-12T07:51:42;8.65;;;7.75;;
27802;SDS011;15182;48.174;11.562;2023-09-12T07:54:11;8.82;;;8.00;;
27802;SDS011;15182;48.174;11.562;2023-09-12T07:56:39;9.10;;;8.25;;
27802;SDS011;15182;48.174;11.562;2023-09-12T07:59:07;9.43;;;8.57;;
27802;SDS011;15182;48.174;11.562;2023-09-12T08:01:35;9.07;;;8.18;;
27802;SDS011;15182;48.174;11.562;2023-09-12T08:04:04;12.95;;;8.55;;
27802;SDS011;15182;48.174;11.562;2023-09-12T08:06:32;8.98;;;8.27;;
27802;SDS011;15182;48.174;11.562;2023-09-12T08:09:00;9.35;;;8.55;;
27802;SDS011;15182;48.174;11.562;2023-09-12T08:11:30;11.65;;;7.88;;
27802;SDS011;15182;48.174;11.562;2023-09-12T08:13:58;9.07;;;8.10;;
27802;SDS011;15182;48.174;11.562;2023-09-12T08:16:25;9.10;;;8.45;;
27802;SDS011;15182;48.174;11.562;2023-09-12T08:18:53;12.05;;;8.63;;
27802;SDS011;15182;48.174;11.562;2023-09-12T08:21:21;8.77;;;8.05;;
27802;SDS011;15182;48.174;11.562;2023-09-12T08:23:49;8.68;;;8.07;;
27802;SDS011;15182;48.174;11.562;2023-09-12T08:26:17;8.88;;;7.80;;
27802;SDS011;15182;48.174;11.562;2023-09-12T08:28:46;8.57;;;7.97;;
27802;SDS011;15182;48.174;11.562;2023-09-12T08:31:14;8.98;;;8.38;;
27802;SDS011;15182;48.174;11.562;2023-09-12T08:33:41;8.50;;;7.78;;
27802;SDS011;15182;48.174;11.562;2023-09-12T08:36:09;8.35;;;7.63;;
27802;SDS011;15182;48.174;11.562;2023-09-12T08:38:37;9.10;;;8.40;;
27802;SDS011;15182;48.174;11.562;2023-09-12T08:41:05;11.02;;;7.88;;
27802;SDS011;15182;48.174;11.562;2023-09-12T08:43:33;7.95;;;7.30;;
27802;SDS011;15182;48.174;11.562;2023-09-12T08:46:04;8.85;;;8.15;;
27802;SDS011;15182;48.174;11.562;2023-09-12T08:48:33;14.15;;;8.30;;
27802;SDS011;15182;48.174;11.562;2023-09-12T08:51:03;8.63;;;7.82;;
27802;SDS011;15182;48.174;11.562;2023-09-12T08:53:33;9.43;;;8.02;;
27802;SDS011;15182;48.174;11.562;2023-09-12T08:56:01;9.23;;;8.32;;
27802;SDS011;15182;48.174;11.562;2023-09-12T08:58:30;10.52;;;8.15;;
27802;SDS011;15182;48.174;11.562;2023-09-12T09:00:59;8.00;;;7.45;;
27802;SDS011;15182;48.174;11.562;2023-09-12T09:03:30;8.45;;;7.72;;
27802;SDS011;15182;48.174;11.562;2023-09-12T09:05:58;8.35;;;7.57;;
27802;SDS011;15182;48.174;11.562;2023-09-12T09:08:27;7.75;;;7.05;;
27802;SDS011;15182;48.174;11.562;2023-09-12T09:10:57;8.02;;;7.43;;
27802;SDS011;15182;48.174;11.562;2023-09-12T09:13:28;9.13;;;7.38;;
27802;SDS011;15182;48.174;11.562;2023-09-12T09:18:54;10.73;;;8.25;;
27802;SDS011;15182;48.174;11.562;2023-09-12T09:21:24;8.15;;;7.50;;
27802;SDS011;15182;48.174;11.562;2023-09-12T09:23:59;9.55;;;8.23;;
27802;SDS011;15182;48.174;11.562;2023-09-12T09:26:41;8.30;;;7.70;;
27802;SDS011;15182;48.174;11.562;2023-09-12T09:29:12;10.82;;;7.78;;
27802;SDS011;15182;48.174;11.562;2023-09-12T09:31:42;9.57;;;7.82;;
27802;SDS011;15182;48.174;11.562;2023-09-12T09:34:13;8.95;;;7.82;;
27802;SDS011;15182;48.174;11.562;2023-09-12T09:36:42;9.40;;;8.23;;
27802;SDS011;15182;48.174;11.562;2023-09-12T09:39:11;11.00;;;7.95;;
27802;SDS011;15182;48.174;11.562;2023-09-12T09:41:40;8.18;;;7.50;;
27802;SDS011;15182;48.174;11.562;2023-09-12T09:44:08;8.80;;;7.65;;
27802;SDS011;15182;48.174;11.562;2023-09-12T09:46:36;8.52;;;7.75;;
27802;SDS011;15182;48.174;11.562;2023-09-12T09:49:04;8.05;;;7.55;;
27802;SDS011;15182;48.174;11.562;2023-09-12T09:51:36;8.18;;;7.60;;
27802;SDS011;15182;48.174;11.562;2023-09-12T09:54:08;8.15;;;7.43;;
27802;SDS011;15182;48.174;11.562;2023-09-12T09:56:44;8.10;;;7.50;;
27802;SDS011;15182;48.174;11.562;2023-09-12T09:59:14;7.97;;;7.38;;
27802;SDS011;15182;48.174;11.562;2023-09-12T10:01:43;8.75;;;7.65;;
27802;SDS011;15182;48.174;11.562;2023-09-12T10:04:13;8.45;;;7.80;;
27802;SDS011;15182;48.174;11.562;2023-09-12T10:06:44;7.55;;;7.15;;
27802;SDS011;15182;48.174;11.562;2023-09-12T10:09:13;7.70;;;7.03;;
27802;SDS011;15182;48.174;11.562;2023-09-12T10:11:43;7.65;;;7.10;;
27802;SDS011;15182;48.174;11.562;2023-09-12T10:14:14;6.88;;;6.55;;
27802;SDS011;15182;48.174;11.562;2023-09-12T10:16:46;7.22;;;6.63;;
27802;SDS011;15182;48.174;11.562;2023-09-12T10:19:18;6.57;;;6.28;;
27802;SDS011;15182;48.174;11.562;2023-09-12T10:21:52;7.03;;;6.43;;
27802;SDS011;15182;48.174;11.562;2023-09-12T10:24:30;7.63;;;7.03;;
27802;SDS011;15182;48.174;11.562;2023-09-12T10:27:00;7.85;;;7.25;;
27802;SDS011;15182;48.174;11.562;2023-09-12T10:29:29;7.13;;;6.80;;
27802;SDS011;15182;48.174;11.562;2023-09-12T10:31:58;7.70;;;7.00;;
27802;SDS011;15182;48.174;11.562;2023-09-12T10:34:27;7.57;;;6.97;;
27802;SDS011;15182;48.174;11.562;2023-09-12T10:36:58;8.25;;;7.43;;
27802;SDS011;15182;48.174;11.562;2023-09-12T10:39:27;7.20;;;6.80;;
27802;SDS011;15182;48.174;11.562;2023-09-12T10:41:56;7.38;;;6.82;;
27802;SDS011;15182;48.174;11.562;2023-09-12T10:44:26;7.38;;;6.82;;
27802;SDS011;15182;48.174;11.562;2023-09-12T10:46:55;7.70;;;7.10;;
27802;SDS011;15182;48.174;11.562;2023-09-12T10:49:23;6.95;;;6.55;;
27802;SDS011;15182;48.174;11.562;2023-09-12T10:51:52;7.38;;;6.53;;
27802;SDS011;15182;48.174;11.562;2023-09-12T10:54:24;7.53;;;6.95;;
27802;SDS011;15182;48.174;11.562;2023-09-12T10:57:02;9.30;;;6.75;;
27802;SDS011;15182;48.174;11.562;2023-09-12T10:59:31;7.65;;;7.10;;
27802;SDS011;15182;48.174;11.562;2023-09-12T11:04:55;7.57;;;7.03;;
27802;SDS011;15182;48.174;11.562;2023-09-12T11:07:33;8.02;;;6.78;;
27802;SDS011;15182;48.174;11.562;2023-09-12T11:10:16;7.45;;;6.88;;
27802;SDS011;15182;48.174;11.562;2023-09-12T11:12:46;7.25;;;6.72;;
27802;SDS011;15182;48.174;11.562;2023-09-12T11:15:15;7.47;;;6.72;;
27802;SDS011;15182;48.174;11.562;2023-09-12T11:17:44;7.53;;;7.03;;
27802;SDS011;15182;48.174;11.562;2023-09-12T11:20:13;7.28;;;6.80;;
27802;SDS011;15182;48.174;11.562;2023-09-12T11:22:43;7.35;;;6.68;;
27802;SDS011;15182;48.174;11.562;2023-09-12T11:25:17;7.50;;;6.68;;
27802;SDS011;15182;48.174;11.562;2023-09-12T11:28:02;7.25;;;6.60;;
27802;SDS011;15182;48.174;11.562;2023-09-12T11:30:31;6.88;;;6.38;;
27802;SDS011;15182;48.174;11.562;2023-09-12T11:33:03;6.82;;;6.30;;
27802;SDS011;15182;48.174;11.562;2023-09-12T11:35:35;7.00;;;6.60;;
27802;SDS011;15182;48.174;11.562;2023-09-12T11:38:09;6.97;;;6.50;;
27802;SDS011;15182;48.174;11.562;2023-09-12T11:40:43;6.50;;;6.20;;
27802;SDS011;15182;48.174;11.562;2023-09-12T11:43:21;6.25;;;5.78;;
27802;SDS011;15182;48.174;11.562;2023-09-12T11:45:51;6.32;;;5.97;;
27802;SDS011;15182;48.174;11.562;2023-09-12T11:48:19;7.05;;;6.45;;
27802;SDS011;15182;48.174;11.562;2023-09-12T11:50:51;6.63;;;6.28;;
27802;SDS011;15182;48.174;11.562;2023-09-12T11:53:21;7.53;;;6.03;;
27802;SDS011;15182;48.174;11.562;2023-09-12T11:55:53;6.60;;;6.30;;
27802;SDS011;15182;48.174;11.562;2023-09-12T11:58:24;6.63;;;6.32;;
27802;SDS011;15182;48.174;11.562;2023-09-12T12:00:54;7.68;;;6.90;;
27802;SDS011;15182;48.174;11.562;2023-09-12T12:03:24;6.78;;;6.38;;
27802;SDS011;15182;48.174;11.562;2023-09-12T12:05:54;6.60;;;6.30;;
27802;SDS011;15182;48.174;11.562;2023-09-12T12:08:22;6.82;;;6.43;;
27802;SDS011;15182;48.174;11.562;2023-09-12T12:10:51;8.65;;;6.38;;
27802;SDS011;15182;48.174;11.562;2023-09-12T12:13:21;6.32;;;5.93;;
27802;SDS011;15182;48.174;11.562;2023-09-12T12:15:49;6.32;;;6.03;;
27802;SDS011;15182;48.174;11.562;2023-09-12T12:18:18;6.45;;;5.95;;
27802;SDS011;15182;48.174;11.562;2023-09-12T12:20:46;6.60;;;5.97;;
27802;SDS011;15182;48.174;11.562;2023-09-12T12:23:14;5.70;;;5.47;;
27802;SDS011;15182;48.174;11.562;2023-09-12T12:25:41;6.97;;;6.50;;
27802;SDS011;15182;48.174;11.562;2023-09-12T12:28:11;6.30;;;5.90;;
27802;SDS011;15182;48.174;11.562;2023-09-12T12:30:38;6.75;;;6.15;;
27802;SDS011;15182;48.174;11.562;2023-09-12T12:33:07;7.80;;;6.13;;
27802;SDS011;15182;48.174;11.562;2023-09-12T12:35:36;6.07;;;5.65;;
27802;SDS011;15182;48.174;11.562;2023-09-12T12:38:03;5.80;;;5.45;;
27802;SDS011;15182;48.174;11.562;2023-09-12T12:40:31;6.57;;;6.07;;
27802;SDS011;15182;48.174;11.562;2023-09-12T12:43:04;6.93;;;6.13;;
27802;SDS011;15182;48.174;11.562;2023-09-12T12:45:33;6.32;;;6.03;;
27802;SDS011;15182;48.174;11.562;2023-09-12T12:48:03;6.13;;;5.80;;
27802;SDS011;15182;48.174;11.562;2023-09-12T12:50:35;7.20;;;5.93;;
27802;SDS011;15182;48.174;11.562;2023-09-12T12:53:03;7.93;;;6.75;;
27802;SDS011;15182;48.174;11.562;2023-09-12T12:55:31;6.60;;;6.20;;
27802;SDS011;15182;48.174;11.562;2023-09-12T12:58:01;7.53;;;6.47;;
27802;SDS011;15182;48.174;11.562;2023-09-12T13:00:31;7.63;;;5.78;;
27802;SDS011;15182;48.174;11.562;2023-09-12T13:03:00;7.32;;;6.55;;
27802;SDS011;15182;48.174;11.562;2023-09-12T13:05:29;7.03;;;6.32;;
27802;SDS011;15182;48.174;11.562;2023-09-12T13:07:58;6.50;;;5.93;;
27802;SDS011;15182;48.174;11.562;2023-09-12T13:10:26;6.90;;;6.30;;
27802;SDS011;15182;48.174;11.562;2023-09-12T13:12:53;6.88;;;6.50;;
27802;SDS011;15182;48.174;11.562;2023-09-12T13:15:21;10.05;;;7.22;;
27802;SDS011;15182;48.174;11.562;2023-09-12T13:17:49;6.85;;;6.25;;
27802;SDS011;15182;48.174;11.562;2023-09-12T13:20:18;7.15;;;6.47;;
27802;SDS011;15182;48.174;11.562;2023-09-12T13:22:46;6.93;;;6.38;;
27802;SDS011;15182;48.174;11.562;2023-09-12T13:25:14;6.75;;;6.30;;
27802;SDS011;15182;48.174;11.562;2023-09-12T13:27:41;6.72;;;6.05;;
27802;SDS011;15182;48.174;11.562;2023-09-12T13:30:09;10.10;;;6.90;;
27802;SDS011;15182;48.174;11.562;2023-09-12T13:32:38;6.63;;;6.03;;
27802;SDS011;15182;48.174;11.562;2023-09-12T13:35:06;6.53;;;6.13;;
27802;SDS011;15182;48.174;11.562;2023-09-12T13:37:35;10.00;;;6.40;;
27802;SDS011;15182;48.174;11.562;2023-09-12T13:40:03;8.45;;;6.25;;
27802;SDS011;15182;48.174;11.562;2023-09-12T13:42:34;6.68;;;6.18;;
27802;SDS011;15182;48.174;11.562;2023-09-12T13:45:02;6.95;;;6.55;;
27802;SDS011;15182;48.174;11.562;2023-09-12T13:47:31;6.10;;;5.80;;
27802;SDS011;15182;48.174;11.562;2023-09-12T13:49:59;6.40;;;5.95;;
27802;SDS011;15182;48.174;11.562;2023-09-12T13:52:27;6.50;;;6.00;;
27802;SDS011;15182;48.174;11.562;2023-09-12T13:54:56;7.22;;;6.82;;
27802;SDS011;15182;48.174;11.562;2023-09-12T13:57:24;7.22;;;6.78;;
27802;SDS011;15182;48.174;11.562;2023-09-12T13:59:52;8.00;;;7.40;;
27802;SDS011;15182;48.174;11.562;2023-09-12T14:02:19;7.65;;;7.20;;
27802;SDS011;15182;48.174;11.562;2023-09-12T14:04:47;6.55;;;5.97;;
27802;SDS011;15182;48.174;11.562;2023-09-12T14:07:15;7.30;;;6.38;;
27802;SDS011;15182;48.174;11.562;2023-09-12T14:09:43;8.60;;;6.53;;
27802;SDS011;15182;48.174;11.562;2023-09-12T14:12:12;7.03;;;6.53;;
27802;SDS011;15182;48.174;11.562;2023-09-12T14:14:39;8.77;;;7.00;;
27802;SDS011;15182;48.174;11.562;2023-09-12T14:17:07;16.02;;;7.55;;
27802;SDS011;15182;48.174;11.562;2023-09-12T14:19:35;8.40;;;6.65;;
27802;SDS011;15182;48.174;11.562;2023-09-12T14:22:03;11.15;;;6.43;;
27802;SDS011;15182;48.174;11.562;2023-09-12T14:24:31;6.75;;;6.30;;
27802;SDS011;15182;48.174;11.562;2023-09-12T14:26:59;6.78;;;6.38;;
27802;SDS011;15182;48.174;11.562;2023-09-12T14:29:28;6.47;;;6.05;;
27802;SDS011;15182;48.174;11.562;2023-09-12T14:31:56;6.53;;;6.15;;
27802;SDS011;15182;48.174;11.562;2023-09-12T14:34:24;7.28;;;6.82;;
27802;SDS011;15182;48.174;11.562;2023-09-12T14:36:53;7.38;;;6.63;;
27802;SDS011;15182;48.174;11.562;2023-09-12T14:39:21;7.15;;;6.55;;
27802;SDS011;15182;48.174;11.562;2023-09-12T14:41:49;6.60;;;6.30;;
27802;SDS011;15182;48.174;11.562;2023-09-12T14:44:20;8.60;;;6.45;;
27802;SDS011;15182;48.174;11.562;2023-09-12T14:46:49;11.57;;;6.03;;
27802;SDS011;15182;48.174;11.562;2023-09-12T14:49:17;7.63;;;7.00;;
27802;SDS011;15182;48.174;11.562;2023-09-12T14:51:45;6.90;;;6.40;;